Ana Sayfa
METAR-TAF:

METAR-TAF

Havaalanları :

Ouagadougou, Burkina Faso

Enlem: 12-21N, Boylam: 001-31W, yükseklik: 316 m

Güncel hava durumu gözlemi

Rapor saat 11:00 UTC de 1 saat ve 2 dakika önce yapıldı.
Rüzgar kuzeydan 5 kt, kuzey/kuzeybatı ve doğu arasında değişken
Sıcaklık 36°C
Nem 7%
Basınç 1011 hPa
Görüş mesafesi 10 km veya daha fazla
1500 m altında bulut yok ve kümülonimbus yok

METAR: DFFD 211100Z 01005KT 330V080 CAVOK 36/M05 Q1011 NOSIG

Saat: 12:02 (12:02 UTC)

Tahmin

Rapor saat 11:00 UTC de 1 saat ve 2 dakika önce yapıldı.
Ayın 21'si saat 12 UTC'den ayın 22'si saat 18 UTC'ye kadar geçerli Tahmin
Rüzgar değişken yönden 7 kt
Görüş mesafesi: 8000 m
Geçici
ayın 22'si saat 06 UTC'den ayın 22'si saat 10 UTC'ye kadar
Görüş mesafesi: 4000 m
yaygın toz

TAF: DFFD 211100Z 2112/2218 VRB07KT 8000 NSC TEMPO 2206/2210 4000 DU

4.000'den fazla havaalanı için hava durumu gözlemleri ve tahminleri (METAR ve TAF raporları).

Kullanılabilir istasyonlar harita üzerinde sarı ve kırmızı noktalarla gösterilir.

İstasyonun adını görmek için fareyi noktanın üzerinde gezdirin.

Sonrasında hava gözlem ve tahminlerini görmek için tıklayın.

Haritayı değiştirmek için: yaklaştırmak için siyah artı işaretli yeşil düğmeye ve uzaklaştırmak için de eksi işaretli düğmeye hızla tıklayın; bitişik haritalar için yeşil okları kullanın.


METAR-TAF: